Time;durP1;ratioP1;P1;durP2;ratioP2;P2;SDS_P1;SDS_P2;PMS_P1;PMS_P2;Temp;Humidity;BMP_temperature;BMP_pressure;BME280_temperature;BME280_humidity;BME280_pressure;Samples;Min_cycle;Max_cycle;Signal;HPM_P1;HPM_P2
2021/04/14 00:02:15;;;;;;;4.47;2.83;;;5.10;64.80;;;;;;5073086;28;20078;-69
2021/04/14 00:04:41;;;;;;;7.03;3.58;;;5.20;64.80;;;;;;5073103;28;20373;-69
2021/04/14 00:07:08;;;;;;;4.65;2.83;;;5.20;64.80;;;;;;5074942;28;20492;-69
2021/04/14 00:09:34;;;;;;;5.05;3.00;;;5.30;64.90;;;;;;5074396;28;20059;-69
2021/04/14 00:12:01;;;;;;;4.28;2.85;;;5.30;64.90;;;;;;5072978;28;20056;-69
2021/04/14 00:14:28;;;;;;;4.95;3.10;;;5.30;64.80;;;;;;5074758;28;20040;-69
2021/04/14 00:16:54;;;;;;;5.85;3.03;;;5.40;64.90;;;;;;5073125;28;20379;-69
2021/04/14 00:19:20;;;;;;;4.95;2.88;;;5.40;65.60;;;;;;5074770;28;20027;-69
2021/04/14 00:21:45;;;;;;;4.40;2.78;;;5.50;65.00;;;;;;5072936;28;20032;-70
2021/04/14 00:24:13;;;;;;;6.25;3.10;;;5.50;65.00;;;;;;5074565;28;20055;-69
2021/04/14 00:26:39;;;;;;;4.78;2.75;;;5.50;65.00;;;;;;5072760;28;20108;-69
2021/04/14 00:29:05;;;;;;;5.38;2.80;;;5.60;65.00;;;;;;5073993;28;20020;-69
2021/04/14 00:31:37;;;;;;;6.75;2.90;;;5.60;65.00;;;;;;5072409;28;20040;-69
2021/04/14 00:34:08;;;;;;;5.60;3.10;;;5.60;65.00;;;;;;5074046;28;20028;-69
2021/04/14 00:36:36;;;;;;;3.97;3.15;;;5.60;65.10;;;;;;5072414;28;20107;-70
2021/04/14 00:39:06;;;;;;;4.78;2.90;;;5.60;65.20;;;;;;5073711;28;20024;-69
2021/04/14 00:41:33;;;;;;;6.78;3.35;;;5.70;65.30;;;;;;5073906;28;20039;-69
2021/04/14 00:44:01;;;;;;;6.10;3.10;;;5.70;65.30;;;;;;5072448;28;20025;-69
2021/04/14 00:46:27;;;;;;;5.40;3.00;;;5.70;65.40;;;;;;5072385;28;20085;-69
2021/04/14 00:48:52;;;;;;;6.00;3.63;;;5.80;65.50;;;;;;5073808;28;20028;-70
2021/04/14 00:51:19;;;;;;;4.82;3.25;;;5.80;65.50;;;;;;5073551;28;20028;-69
2021/04/14 00:53:45;;;;;;;5.13;3.03;;;5.80;65.40;;;;;;5073626;28;20028;-70
2021/04/14 00:56:11;;;;;;;5.13;3.30;;;5.80;65.40;;;;;;5073561;28;20471;-70
2021/04/14 00:58:36;;;;;;;6.28;3.22;;;5.80;65.40;;;;;;5073598;28;20033;-69
2021/04/14 01:01:03;;;;;;;5.30;3.00;;;5.90;65.60;;;;;;5073506;28;20116;-70
2021/04/14 01:03:34;;;;;;;6.60;3.15;;;5.90;65.60;;;;;;5073465;28;20040;-70
2021/04/14 01:06:10;;;;;;;5.60;3.20;;;5.90;65.50;;;;;;5072163;28;20029;-69
2021/04/14 01:08:36;;;;;;;5.93;3.50;;;5.90;65.60;;;;;;5073072;28;20035;-70
2021/04/14 01:11:04;;;;;;;5.43;3.17;;;5.90;65.70;;;;;;5071953;28;20024;-70
2021/04/14 01:13:30;;;;;;;7.60;3.13;;;5.90;65.80;;;;;;5072017;28;20048;-69
2021/04/14 01:15:56;;;;;;;5.45;2.90;;;5.90;65.80;;;;;;5073109;28;20476;-70
2021/04/14 01:18:27;;;;;;;3.83;2.88;;;5.90;65.80;;;;;;5071852;28;20024;-69
2021/04/14 01:20:54;;;;;;;5.07;2.38;;;5.90;65.90;;;;;;5073007;28;20094;-69
2021/04/14 01:23:26;;;;;;;4.55;3.10;;;5.90;66.00;;;;;;5071783;28;20388;-70
2021/04/14 01:25:52;;;;;;;7.65;2.83;;;5.80;66.10;;;;;;5073119;28;20037;-70
2021/04/14 01:28:25;;;;;;;4.13;2.85;;;5.90;66.10;;;;;;5071593;28;20029;-70
2021/04/14 01:30:52;;;;;;;6.20;2.97;;;5.80;66.20;;;;;;5072699;28;20084;-70
2021/04/14 01:33:19;;;;;;;8.23;3.10;;;5.80;66.20;;;;;;5071799;28;20116;-70
2021/04/14 01:35:45;;;;;;;5.03;3.25;;;5.90;66.30;;;;;;5071370;28;20428;-70
2021/04/14 01:38:11;;;;;;;4.57;3.08;;;5.90;66.40;;;;;;5072010;28;20081;-70
2021/04/14 01:40:38;;;;;;;5.30;3.30;;;5.90;66.40;;;;;;5071594;28;20372;-70
2021/04/14 01:43:05;;;;;;;5.47;3.17;;;5.90;66.30;;;;;;5071581;28;20035;-70
2021/04/14 01:45:34;;;;;;;5.88;3.17;;;5.90;66.40;;;;;;5071583;28;20035;-70
2021/04/14 01:48:00;;;;;;;5.25;3.25;;;5.90;66.40;;;;;;5073152;28;20035;-71
2021/04/14 01:50:26;;;;;;;7.25;3.13;;;6.00;66.40;;;;;;5072899;28;20472;-71
2021/04/14 01:52:52;;;;;;;4.55;3.30;;;6.00;66.40;;;;;;5073282;28;20460;-70
2021/04/14 01:55:19;;;;;;;5.50;3.20;;;5.90;66.40;;;;;;5072929;28;20547;-70
2021/04/14 01:57:46;;;;;;;5.45;3.25;;;5.90;66.50;;;;;;5071534;28;20028;-70
2021/04/14 02:00:21;;;;;;;5.93;3.03;;;5.90;66.50;;;;;;5073403;28;20035;-70
2021/04/14 02:02:51;;;;;;;5.22;3.20;;;5.90;66.60;;;;;;5072733;28;20494;-69
2021/04/14 02:05:19;;;;;;;6.03;3.35;;;5.90;66.60;;;;;;5071471;28;20028;-70
2021/04/14 02:07:45;;;;;;;5.32;3.28;;;5.90;66.60;;;;;;5073321;28;20042;-69
2021/04/14 02:10:13;;;;;;;4.35;3.13;;;5.90;66.60;;;;;;5071642;28;20387;-70
2021/04/14 02:12:39;;;;;;;4.45;3.50;;;5.90;66.60;;;;;;5071513;28;20029;-70
2021/04/14 02:15:07;;;;;;;6.55;3.00;;;5.90;66.60;;;;;;5071330;28;20104;-70
2021/04/14 02:17:33;;;;;;;4.88;3.17;;;6.00;66.60;;;;;;5073302;28;20028;-70
2021/04/14 02:19:59;;;;;;;5.35;3.45;;;5.90;66.50;;;;;;5072634;28;20467;-70
2021/04/14 02:22:24;;;;;;;5.82;3.30;;;6.00;66.70;;;;;;5072614;28;20032;-70
2021/04/14 02:24:50;;;;;;;5.10;3.05;;;6.00;66.70;;;;;;5071311;28;20078;-70
2021/04/14 02:27:16;;;;;;;5.35;3.47;;;6.00;66.70;;;;;;5071257;28;20107;-70
2021/04/14 02:29:41;;;;;;;4.72;3.17;;;6.00;66.70;;;;;;5072667;28;20159;-70
2021/04/14 02:32:07;;;;;;;5.90;3.30;;;6.00;66.70;;;;;;5072645;28;20039;-70
2021/04/14 02:34:33;;;;;;;7.82;3.10;;;6.00;66.60;;;;;;5071152;28;20036;-70
2021/04/14 02:37:01;;;;;;;3.85;3.15;;;6.00;66.60;;;;;;5072788;28;20388;-70
2021/04/14 02:39:27;;;;;;;6.80;3.33;;;6.00;66.70;;;;;;5072616;28;20020;-70
2021/04/14 02:41:53;;;;;;;8.38;3.38;;;6.00;66.70;;;;;;5070849;28;20025;-70
2021/04/14 02:44:18;;;;;;;4.28;3.53;;;6.00;66.80;;;;;;5070969;28;20039;-70
2021/04/14 02:46:44;;;;;;;7.93;3.75;;;6.00;66.90;;;;;;5072427;28;20031;-70
2021/04/14 02:49:09;;;;;;;4.72;3.50;;;6.00;66.90;;;;;;5076079;28;20100;-70
2021/04/14 02:51:35;;;;;;;4.03;3.20;;;6.00;66.90;;;;;;5075906;28;20052;-70
2021/04/14 02:54:01;;;;;;;5.30;3.20;;;6.00;66.90;;;;;;5076093;28;20314;-70
2021/04/14 02:56:29;;;;;;;5.65;3.25;;;6.10;66.90;;;;;;5076212;28;20471;-70
2021/04/14 02:58:55;;;;;;;6.88;3.42;;;6.00;66.90;;;;;;5074458;28;20107;-70
2021/04/14 03:01:20;;;;;;;5.47;3.55;;;6.00;66.90;;;;;;5074325;28;20064;-70
2021/04/14 03:03:46;;;;;;;7.00;3.55;;;6.00;67.00;;;;;;5075680;28;20417;-70
2021/04/14 03:06:12;;;;;;;5.55;3.47;;;6.00;67.00;;;;;;5074196;28;20024;-70
2021/04/14 03:08:38;;;;;;;5.30;3.95;;;5.90;67.10;;;;;;5073943;28;20475;-70
2021/04/14 03:11:04;;;;;;;6.45;4.00;;;5.90;67.10;;;;;;5074244;28;20070;-71
2021/04/14 03:13:30;;;;;;;5.63;3.85;;;5.90;67.20;;;;;;5075387;28;20063;-70
2021/04/14 03:15:55;;;;;;;4.80;3.70;;;5.80;67.30;;;;;;5075403;28;20024;-69
2021/04/14 03:18:21;;;;;;;7.30;3.45;;;5.70;67.40;;;;;;5075475;28;20107;-70
2021/04/14 03:20:47;;;;;;;7.10;3.65;;;5.70;67.50;;;;;;5075540;28;20033;-70
2021/04/14 03:23:15;;;;;;;6.18;3.78;;;5.70;67.60;;;;;;5075514;28;20097;-69
2021/04/14 03:25:41;;;;;;;7.75;4.50;;;5.60;67.60;;;;;;5074045;28;20033;-70
2021/04/14 03:28:12;;;;;;;6.30;4.00;;;5.60;67.70;;;;;;5073803;28;20027;-70
2021/04/14 03:30:38;;;;;;;5.57;3.50;;;5.60;67.80;;;;;;5075133;28;20049;-70
2021/04/14 03:33:04;;;;;;;7.45;4.15;;;5.50;67.90;;;;;;5073736;28;20024;-70
2021/04/14 03:35:30;;;;;;;6.32;4.35;;;5.50;67.90;;;;;;5075565;28;20082;-70
2021/04/14 03:37:56;;;;;;;6.05;4.20;;;5.50;67.90;;;;;;5074009;28;20551;-70
2021/04/14 03:40:22;;;;;;;7.35;4.53;;;5.50;68.00;;;;;;5073742;28;20529;-69
2021/04/14 03:42:50;;;;;;;7.20;4.57;;;5.50;68.00;;;;;;5074822;28;20032;-70
2021/04/14 03:45:19;;;;;;;7.00;4.50;;;5.50;68.10;;;;;;5073544;28;20115;-69
2021/04/14 03:47:45;;;;;;;6.97;4.40;;;5.40;68.00;;;;;;5074726;28;20027;-69
2021/04/14 03:50:15;;;;;;;10.02;4.78;;;5.40;68.00;;;;;;5074655;28;20023;-70
2021/04/14 03:52:41;;;;;;;5.72;4.35;;;5.30;68.10;;;;;;5073348;28;20020;-69
2021/04/14 03:55:09;;;;;;;5.43;4.40;;;5.30;68.90;;;;;;5073265;28;20025;-70
2021/04/14 03:57:34;;;;;;;6.85;4.50;;;5.20;68.30;;;;;;5074330;28;20017;-70
2021/04/14 04:00:00;;;;;;;7.85;4.80;;;5.20;68.40;;;;;;5073231;28;20031;-70
2021/04/14 04:02:26;;;;;;;6.78;5.05;;;5.10;68.30;;;;;;5074503;28;20032;-70
2021/04/14 04:04:52;;;;;;;8.00;4.88;;;5.10;68.40;;;;;;5073112;28;20024;-70
2021/04/14 04:07:17;;;;;;;7.70;5.30;;;5.10;68.40;;;;;;5072915;28;20493;-70
2021/04/14 04:09:43;;;;;;;7.28;4.88;;;5.10;69.00;;;;;;5074308;28;20032;-70
2021/04/14 04:12:10;;;;;;;8.45;4.70;;;5.10;68.40;;;;;;5073077;28;20020;-70
2021/04/14 04:14:45;;;;;;;6.63;4.80;;;5.10;68.30;;;;;;5074791;28;20066;-70
2021/04/14 04:17:15;;;;;;;6.28;4.78;;;5.20;68.30;;;;;;5074610;28;20047;-70
2021/04/14 04:19:40;;;;;;;7.20;5.05;;;5.20;68.20;;;;;;5074045;28;20056;-70
2021/04/14 04:22:07;;;;;;;8.68;5.60;;;5.10;68.20;;;;;;5072616;28;20043;-70
2021/04/14 04:24:33;;;;;;;7.00;4.63;;;5.10;68.20;;;;;;5072778;28;20483;-70
2021/04/14 04:26:59;;;;;;;7.75;4.35;;;5.00;68.20;;;;;;5074303;28;20029;-69
2021/04/14 04:29:24;;;;;;;6.72;3.83;;;5.00;68.30;;;;;;5072560;28;20108;-70
2021/04/14 04:31:50;;;;;;;7.68;4.38;;;5.00;68.40;;;;;;5073544;28;20075;-70
2021/04/14 04:34:15;;;;;;;6.55;3.80;;;4.90;68.40;;;;;;5073734;28;20056;-69
2021/04/14 04:36:41;;;;;;;6.13;3.85;;;4.90;68.60;;;;;;5073701;28;20494;-70
2021/04/14 04:39:09;;;;;;;5.95;4.20;;;4.80;68.60;;;;;;5072549;28;20073;-70
2021/04/14 04:41:35;;;;;;;6.43;4.30;;;4.80;68.70;;;;;;5073539;28;20031;-71
2021/04/14 04:44:00;;;;;;;5.13;3.80;;;4.80;68.80;;;;;;5073947;28;20024;-70
2021/04/14 04:46:26;;;;;;;6.43;4.10;;;4.80;68.90;;;;;;5073788;28;20048;-70
2021/04/14 04:48:51;;;;;;;7.15;4.20;;;4.90;69.00;;;;;;5073650;28;20047;-70
2021/04/14 04:51:17;;;;;;;7.10;4.53;;;4.90;69.00;;;;;;5072011;28;20132;-70
2021/04/14 04:53:43;;;;;;;7.05;4.30;;;4.90;68.90;;;;;;5072046;28;20024;-70
2021/04/14 04:56:08;;;;;;;8.95;5.45;;;5.00;68.90;;;;;;5072044;28;20047;-69
2021/04/14 04:58:34;;;;;;;7.97;5.07;;;5.10;68.90;;;;;;5073095;28;20056;-69
2021/04/14 05:00:59;;;;;;;6.65;4.68;;;5.10;68.80;;;;;;5071817;28;20035;-69
2021/04/14 05:03:30;;;;;;;6.55;4.32;;;5.10;68.70;;;;;;5073068;28;20033;-69
2021/04/14 05:05:58;;;;;;;7.63;4.78;;;5.20;68.70;;;;;;5071697;28;20024;-69
2021/04/14 05:08:23;;;;;;;6.82;4.32;;;5.20;68.60;;;;;;5072490;28;20028;-69
2021/04/14 05:10:49;;;;;;;6.13;4.20;;;5.20;68.60;;;;;;5071285;28;20502;-69
2021/04/14 05:13:15;;;;;;;7.05;4.53;;;5.30;68.60;;;;;;5072927;28;20023;-68
2021/04/14 05:15:41;;;;;;;6.88;4.30;;;5.30;68.60;;;;;;5072770;28;20025;-69
2021/04/14 05:18:08;;;;;;;7.35;4.78;;;5.40;68.60;;;;;;5072697;28;20028;-69
2021/04/14 05:20:34;;;;;;;7.03;4.35;;;5.40;68.50;;;;;;5071363;28;20036;-68
2021/04/14 05:23:00;;;;;;;9.40;4.75;;;5.50;68.50;;;;;;5072810;28;20028;-68
2021/04/14 05:25:30;;;;;;;7.60;5.18;;;5.50;68.50;;;;;;5072731;28;20058;-69
2021/04/14 05:27:59;;;;;;;6.28;4.50;;;5.50;68.50;;;;;;5072656;28;20051;-69
2021/04/14 05:30:26;;;;;;;6.50;4.40;;;5.50;68.50;;;;;;5071454;28;20540;-69
2021/04/14 05:32:52;;;;;;;6.68;4.50;;;5.50;68.50;;;;;;5071598;28;20357;-69
2021/04/14 05:35:18;;;;;;;7.00;4.57;;;5.50;68.60;;;;;;5073305;28;20033;-69
2021/04/14 05:37:44;;;;;;;6.63;4.63;;;5.60;68.60;;;;;;5073440;28;20087;-69
2021/04/14 05:40:10;;;;;;;7.60;4.82;;;5.60;68.60;;;;;;5071422;28;20074;-69
2021/04/14 05:42:44;;;;;;;8.30;5.05;;;5.70;68.60;;;;;;5072808;28;20032;-68
2021/04/14 05:45:14;;;;;;;11.75;7.65;;;5.70;68.50;;;;;;5071349;28;20047;-69
2021/04/14 05:47:40;;;;;;;10.10;5.90;;;5.70;68.40;;;;;;5073244;28;20037;-69
2021/04/14 05:50:08;;;;;;;10.65;6.28;;;5.80;68.40;;;;;;5072560;28;20044;-69
2021/04/14 05:52:34;;;;;;;9.75;5.35;;;5.90;68.40;;;;;;5071269;28;20021;-69
2021/04/14 05:55:00;;;;;;;7.43;5.20;;;5.90;68.30;;;;;;5072661;28;20036;-69
2021/04/14 05:57:26;;;;;;;6.90;5.07;;;6.00;68.20;;;;;;5072417;28;20037;-69
2021/04/14 05:59:51;;;;;;;9.18;5.30;;;6.10;68.00;;;;;;5072412;28;20074;-69
2021/04/14 06:02:17;;;;;;;9.48;5.50;;;6.10;67.80;;;;;;5072296;28;20043;-69
2021/04/14 06:04:43;;;;;;;8.75;5.40;;;6.20;67.70;;;;;;5072305;28;20040;-69
2021/04/14 06:07:08;;;;;;;7.38;4.82;;;6.30;67.60;;;;;;5072232;28;20036;-69
2021/04/14 06:09:34;;;;;;;8.85;5.20;;;6.40;67.50;;;;;;5072296;28;20388;-69
2021/04/14 06:12:00;;;;;;;8.40;5.38;;;6.50;67.40;;;;;;5070916;28;20028;-69
2021/04/14 06:14:25;;;;;;;7.57;5.40;;;6.50;67.30;;;;;;5071060;28;20056;-69
2021/04/14 06:16:52;;;;;;;6.68;5.00;;;6.60;67.30;;;;;;5070807;28;20021;-69
2021/04/14 06:19:18;;;;;;;7.97;5.07;;;6.70;67.20;;;;;;5072176;28;20107;-69
2021/04/14 06:21:44;;;;;;;8.95;5.05;;;6.70;67.10;;;;;;5075555;28;20117;-69
2021/04/14 06:24:10;;;;;;;7.35;5.10;;;6.80;66.90;;;;;;5076369;28;20126;-69
2021/04/14 06:26:54;;;;;;;7.95;5.00;;;6.90;66.90;;;;;;5076136;28;20036;-69
2021/04/14 06:29:21;;;;;;;8.07;5.10;;;6.90;66.70;;;;;;5074644;28;20032;-69
2021/04/14 06:31:46;;;;;;;7.75;5.40;;;7.00;66.60;;;;;;5074693;28;20523;-69
2021/04/14 06:34:19;;;;;;;8.25;5.43;;;7.00;66.60;;;;;;5074523;28;20016;-68
2021/04/14 06:36:46;;;;;;;9.50;5.30;;;7.00;66.60;;;;;;5074296;28;20024;-68
2021/04/14 06:39:14;;;;;;;8.05;5.00;;;7.10;66.60;;;;;;5074440;28;20028;-71
2021/04/14 06:42:02;;;;;;;8.93;5.47;;;7.10;66.40;;;;;;5075774;28;20029;-71
2021/04/14 06:44:50;;;;;;;7.45;5.13;;;7.10;66.40;;;;;;5075943;28;20040;-70
2021/04/14 06:47:29;;;;;;;8.90;5.47;;;7.10;66.40;;;;;;5075823;28;20392;-71
2021/04/14 06:50:13;;;;;;;7.18;4.60;;;7.00;66.30;;;;;;5075572;28;20029;-70
2021/04/14 06:53:05;;;;;;;6.78;4.80;;;7.00;66.30;;;;;;5074251;28;20043;-71
2021/04/14 06:55:39;;;;;;;8.05;4.95;;;7.00;66.40;;;;;;5074855;28;20059;-70
2021/04/14 06:58:17;;;;;;;7.35;4.78;;;7.00;66.40;;;;;;5075523;28;20033;-69
2021/04/14 07:00:46;;;;;;;7.00;4.88;;;7.00;66.30;;;;;;5074209;28;20506;-70
2021/04/14 07:03:25;;;;;;;7.82;5.30;;;7.10;66.20;;;;;;5076041;28;20029;-70
2021/04/14 07:06:01;;;;;;;6.32;4.45;;;7.10;66.10;;;;;;5075932;28;20037;-69
2021/04/14 07:08:30;;;;;;;6.32;4.95;;;7.20;66.00;;;;;;5075621;28;20035;-69
2021/04/14 07:11:02;;;;;;;8.63;5.40;;;7.20;65.80;;;;;;5075314;28;20055;-69
2021/04/14 07:13:31;;;;;;;7.22;4.80;;;7.30;65.70;;;;;;5075482;28;20099;-69
2021/04/14 07:16:10;;;;;;;8.00;5.50;;;7.50;65.60;;;;;;5075693;28;20484;-70
2021/04/14 07:18:46;;;;;;;8.82;5.25;;;7.60;65.30;;;;;;5075636;28;20098;-69
2021/04/14 07:21:11;;;;;;;7.68;5.25;;;7.80;65.00;;;;;;5073833;28;20498;-69
2021/04/14 07:23:53;;;;;;;9.38;5.60;;;7.90;64.80;;;;;;5075226;28;20028;-69
2021/04/14 07:26:31;;;;;;;7.32;5.22;;;8.00;64.70;;;;;;5075155;28;20422;-70
2021/04/14 07:29:11;;;;;;;7.75;5.25;;;8.00;64.50;;;;;;5073650;28;20032;-69
2021/04/14 07:31:46;;;;;;;7.63;5.05;;;8.00;64.30;;;;;;5072889;28;20512;-69
2021/04/14 07:34:36;;;;;;;7.22;5.10;;;7.90;64.30;;;;;;5073470;28;20029;-69
2021/04/14 07:37:23;;;;;;;9.70;5.78;;;7.80;64.50;;;;;;5073402;28;20039;-70
2021/04/14 07:40:10;;;;;;;8.20;5.55;;;7.60;64.60;;;;;;5073496;28;20043;-71
2021/04/14 07:42:44;;;;;;;8.07;6.20;;;7.60;64.80;;;;;;5073631;28;20441;-71
2021/04/14 07:45:33;;;;;;;7.55;5.38;;;7.60;65.00;;;;;;5074808;28;20035;-70
2021/04/14 07:48:18;;;;;;;8.80;5.25;;;7.60;65.10;;;;;;5073046;28;20035;-71
2021/04/14 07:50:56;;;;;;;6.97;5.35;;;7.60;65.30;;;;;;5073079;28;20040;-72
2021/04/14 07:53:30;;;;;;;8.30;5.20;;;7.60;65.30;;;;;;5074577;28;20047;-70
2021/04/14 07:56:21;;;;;;;8.40;5.28;;;7.60;65.50;;;;;;5073002;28;20130;-70
2021/04/14 07:58:50;;;;;;;10.45;5.95;;;7.70;65.70;;;;;;5073069;28;20024;-70
2021/04/14 08:01:27;;;;;;;8.07;5.22;;;7.80;65.70;;;;;;5072992;28;20028;-70
2021/04/14 08:04:08;;;;;;;9.15;5.97;;;7.90;65.50;;;;;;5074191;28;20464;-71
2021/04/14 08:06:34;;;;;;;8.75;5.00;;;7.90;65.50;;;;;;5074176;28;20032;-69
2021/04/14 08:09:13;;;;;;;7.80;5.20;;;8.00;65.30;;;;;;5074124;28;20036;-71
2021/04/14 08:11:40;;;;;;;9.75;5.85;;;8.10;65.20;;;;;;5074085;28;20067;-71
2021/04/14 08:14:06;;;;;;;9.07;6.10;;;8.10;65.20;;;;;;5072749;28;20029;-70
2021/04/14 08:16:36;;;;;;;8.73;6.28;;;8.10;65.30;;;;;;5072631;28;20376;-71
2021/04/14 08:19:18;;;;;;;9.65;6.30;;;8.10;65.20;;;;;;5072608;28;20055;-72
2021/04/14 08:22:00;;;;;;;10.00;6.68;;;8.10;65.30;;;;;;5073777;28;20028;-71
2021/04/14 08:24:37;;;;;;;8.30;5.85;;;8.10;65.30;;;;;;5072550;28;20062;-71
2021/04/14 08:27:36;;;;;;;7.95;5.45;;;8.10;65.20;;;;;;5073643;28;20508;-70
2021/04/14 08:30:04;;;;;;;7.90;4.55;;;8.10;65.10;;;;;;5072301;28;20045;-70
2021/04/14 08:32:42;;;;;;;9.23;5.50;;;8.20;65.10;;;;;;5073720;28;20067;-70
2021/04/14 08:35:36;;;;;;;7.00;4.90;;;8.20;64.90;;;;;;5072321;28;20020;-70
2021/04/14 08:38:30;;;;;;;9.80;5.90;;;8.40;64.90;;;;;;5073677;28;20056;-71
2021/04/14 08:40:59;;;;;;;6.90;4.85;;;8.60;64.60;;;;;;5073806;28;20145;-70
2021/04/14 08:43:40;;;;;;;9.75;5.70;;;8.80;64.30;;;;;;5072868;28;20047;-71
2021/04/14 08:46:34;;;;;;;8.50;5.57;;;8.80;63.90;;;;;;5073467;28;20021;-71
2021/04/14 08:49:11;;;;;;;;;;;9.00;63.90;;;;;;5072468;28;20492;-71
2021/04/14 08:51:42;;;;;;;12.60;6.47;;;9.00;63.80;;;;;;5072486;28;20322;-70
2021/04/14 08:54:13;;;;;;;6.53;5.43;;;9.10;63.60;;;;;;5073931;28;20545;-70
2021/04/14 08:56:39;;;;;;;8.00;5.53;;;9.20;63.40;;;;;;5071954;28;20044;-69
2021/04/14 08:59:05;;;;;;;9.80;5.80;;;9.30;63.20;;;;;;5071875;28;20032;-70
2021/04/14 09:01:31;;;;;;;9.18;5.97;;;9.50;63.10;;;;;;5071958;28;20056;-69
2021/04/14 09:04:00;;;;;;;8.10;5.63;;;9.60;62.90;;;;;;5071819;28;20031;-71
2021/04/14 09:06:29;;;;;;;7.35;5.55;;;9.70;62.60;;;;;;5073196;28;20483;-71
2021/04/14 09:08:56;;;;;;;10.05;6.35;;;9.90;63.00;;;;;;5073059;28;20056;-71
2021/04/14 09:11:30;;;;;;;8.35;6.40;;;10.00;62.10;;;;;;5073142;28;20135;-71
2021/04/14 09:14:02;;;;;;;12.60;7.18;;;10.00;61.50;;;;;;5071697;28;20028;-71
2021/04/14 09:16:33;;;;;;;12.73;6.82;;;9.90;61.10;;;;;;5071795;28;20392;-71
2021/04/14 09:19:24;;;;;;;10.95;6.63;;;9.80;61.10;;;;;;5071892;28;20039;-69
2021/04/14 09:21:59;;;;;;;10.65;7.15;;;9.70;61.10;;;;;;5073352;28;20484;-70
2021/04/14 09:24:42;;;;;;;10.40;7.70;;;9.60;60.90;;;;;;5072958;28;20021;-69
2021/04/14 09:27:37;;;;;;;11.07;7.47;;;9.50;61.10;;;;;;5072966;28;20087;-69
2021/04/14 09:30:24;;;;;;;11.23;7.13;;;9.50;61.40;;;;;;5072668;28;20075;-69
2021/04/14 09:32:57;;;;;;;13.77;7.22;;;9.40;61.60;;;;;;5071604;28;20024;-69
2021/04/14 09:35:28;;;;;;;12.50;7.68;;;9.30;61.80;;;;;;5072950;28;20166;-69
2021/04/14 09:38:25;;;;;;;12.38;7.63;;;9.20;61.90;;;;;;5072803;28;20475;-69
2021/04/14 09:40:53;;;;;;;10.30;6.88;;;9.10;61.90;;;;;;5072074;28;20036;-69
2021/04/14 09:43:33;;;;;;;10.52;7.50;;;8.90;62.10;;;;;;5072859;28;20025;-69
2021/04/14 09:46:03;;;;;;;11.00;7.93;;;8.80;62.30;;;;;;5073188;28;20032;-69
2021/04/14 09:48:50;;;;;;;10.32;7.45;;;8.70;62.20;;;;;;5072822;28;20044;-69
2021/04/14 09:51:30;;;;;;;11.20;7.32;;;8.50;62.50;;;;;;5072688;28;20043;-69
2021/04/14 09:54:00;;;;;;;12.93;8.02;;;8.40;62.60;;;;;;5071325;28;20029;-69
2021/04/14 09:56:30;;;;;;;11.27;7.45;;;8.40;62.80;;;;;;5075888;28;20028;-69
2021/04/14 09:59:36;;;;;;;12.40;8.35;;;8.30;63.00;;;;;;5075416;28;20029;-70
2021/04/14 10:02:14;;;;;;;11.55;8.07;;;8.30;63.10;;;;;;5074594;28;20496;-69
2021/04/14 10:04:40;;;;;;;12.73;9.55;;;8.20;64.20;;;;;;5073357;28;20510;-69
2021/04/14 10:07:18;;;;;;;12.07;8.10;;;8.10;64.30;;;;;;5076662;28;20029;-69
2021/04/14 10:09:44;;;;;;;12.63;8.30;;;7.90;64.80;;;;;;5075231;28;20017;-69
2021/04/14 10:12:21;;;;;;;14.38;8.10;;;7.80;65.50;;;;;;5076492;28;20031;-69
2021/04/14 10:14:52;;;;;;;12.80;8.52;;;7.80;65.90;;;;;;5076460;28;20029;-71
2021/04/14 10:17:20;;;;;;;11.13;7.80;;;7.70;66.20;;;;;;5074975;28;20028;-69
2021/04/14 10:19:53;;;;;;;11.68;7.43;;;7.70;66.30;;;;;;5076397;28;20063;-70
2021/04/14 10:22:34;;;;;;;11.82;8.02;;;7.70;66.40;;;;;;5076260;28;20020;-70
2021/04/14 10:25:17;;;;;;;11.65;7.68;;;7.70;66.50;;;;;;5076188;28;20032;-70
2021/04/14 10:27:43;;;;;;;8.30;6.13;;;7.70;66.80;;;;;;5074911;28;20110;-69
2021/04/14 10:30:14;;;;;;;9.10;6.10;;;7.80;67.00;;;;;;5075837;28;20423;-70
2021/04/14 10:32:40;;;;;;;7.25;5.38;;;7.90;67.00;;;;;;5076076;28;20383;-70
2021/04/14 10:35:12;;;;;;;9.05;6.30;;;8.00;66.90;;;;;;5074705;28;20024;-70
2021/04/14 10:37:47;;;;;;;6.97;5.22;;;8.00;67.30;;;;;;5076108;28;20094;-69
2021/04/14 10:40:38;;;;;;;7.53;5.32;;;8.00;66.60;;;;;;5076076;28;20029;-70
2021/04/14 10:43:19;;;;;;;8.98;6.30;;;8.00;66.70;;;;;;5071870;28;20502;-70
2021/04/14 10:45:55;;;;;;;7.85;5.60;;;8.10;66.80;;;;;;5074462;28;20064;-70
2021/04/14 10:48:22;;;;;;;8.23;5.88;;;8.10;66.70;;;;;;5074356;28;20036;-70
2021/04/14 10:50:49;;;;;;;10.43;5.80;;;8.20;66.50;;;;;;5076093;28;20101;-70
2021/04/14 10:53:18;;;;;;;11.48;7.47;;;8.40;66.60;;;;;;5076213;28;20082;-70
2021/04/14 10:55:47;;;;;;;8.35;6.63;;;8.60;66.50;;;;;;5075883;28;20491;-70
2021/04/14 10:58:24;;;;;;;8.48;5.63;;;8.80;66.40;;;;;;5075505;28;20475;-70
2021/04/14 11:00:50;;;;;;;7.28;5.47;;;9.00;65.80;;;;;;5075455;28;20036;-70
2021/04/14 11:03:22;;;;;;;8.90;5.78;;;9.10;65.60;;;;;;5075436;28;20036;-70
2021/04/14 11:05:55;;;;;;;7.50;5.10;;;9.30;65.30;;;;;;5075508;28;20107;-70
2021/04/14 11:08:24;;;;;;;7.10;5.60;;;9.40;65.10;;;;;;5074265;28;20024;-70
2021/04/14 11:10:52;;;;;;;6.82;5.28;;;9.50;65.00;;;;;;5075432;28;20278;-70
2021/04/14 11:13:21;;;;;;;7.57;4.93;;;9.60;64.80;;;;;;5074323;28;20024;-71
2021/04/14 11:15:49;;;;;;;8.73;6.35;;;9.60;64.70;;;;;;5075487;28;20032;-70
2021/04/14 11:18:17;;;;;;;9.07;6.07;;;9.60;64.40;;;;;;5075132;28;20387;-71
2021/04/14 11:20:51;;;;;;;7.68;5.75;;;9.60;64.20;;;;;;5073699;28;20499;-69
2021/04/14 11:23:22;;;;;;;8.45;5.63;;;9.70;64.30;;;;;;5073621;28;20040;-71
2021/04/14 11:25:48;;;;;;;5.93;4.95;;;9.80;64.10;;;;;;5074982;28;20034;-70
2021/04/14 11:28:17;;;;;;;7.50;5.88;;;9.80;63.90;;;;;;5073749;28;20067;-70
2021/04/14 11:30:48;;;;;;;7.28;5.30;;;9.90;63.70;;;;;;5074893;28;20049;-70
2021/04/14 11:33:14;;;;;;;7.40;5.85;;;10.00;63.50;;;;;;5073740;28;20037;-70
2021/04/14 11:35:47;;;;;;;7.03;5.60;;;10.10;63.40;;;;;;5073645;28;20108;-70
2021/04/14 11:38:33;;;;;;;7.82;5.43;;;10.20;63.10;;;;;;5073742;28;20095;-70
2021/04/14 11:41:11;;;;;;;9.82;5.35;;;10.30;62.90;;;;;;5073554;28;20067;-70
2021/04/14 11:43:39;;;;;;;10.02;6.32;;;10.40;62.60;;;;;;5073581;28;20032;-71
2021/04/14 11:46:27;;;;;;;7.68;5.53;;;10.60;61.90;;;;;;5073587;28;20086;-70
2021/04/14 11:49:09;;;;;;;7.45;5.38;;;10.70;61.30;;;;;;5074336;28;20127;-70
2021/04/14 11:51:45;;;;;;;6.18;4.65;;;10.80;61.00;;;;;;5073825;28;20119;-70
2021/04/14 11:54:26;;;;;;;9.02;5.43;;;10.90;60.50;;;;;;5073338;28;20032;-70
2021/04/14 11:57:24;;;;;;;7.22;5.10;;;10.90;60.30;;;;;;5073316;28;20059;-70
2021/04/14 12:00:06;;;;;;;9.27;5.20;;;10.80;59.80;;;;;;5071399;28;20559;-70
2021/04/14 12:02:36;;;;;;;7.93;5.30;;;10.80;59.70;;;;;;5073246;28;20036;-70
2021/04/14 12:05:06;;;;;;;7.65;4.65;;;10.80;59.70;;;;;;5072919;28;20028;-70
2021/04/14 12:07:31;;;;;;;7.68;5.45;;;10.80;59.80;;;;;;5074130;28;20051;-71
2021/04/14 12:09:57;;;;;;;7.25;5.00;;;10.80;59.60;;;;;;5074299;28;20024;-70
2021/04/14 12:12:24;;;;;;;6.53;4.70;;;10.90;59.30;;;;;;5072923;28;20519;-70
2021/04/14 12:14:50;;;;;;;7.80;5.03;;;11.00;59.10;;;;;;5074175;28;20020;-70
2021/04/14 12:17:20;;;;;;;6.97;4.68;;;11.10;58.80;;;;;;5072857;28;20033;-71
2021/04/14 12:19:46;;;;;;;8.73;5.00;;;11.10;58.80;;;;;;5072610;28;20036;-70
2021/04/14 12:22:13;;;;;;;6.38;4.57;;;11.20;58.10;;;;;;5072744;28;20029;-70
2021/04/14 12:24:40;;;;;;;6.05;4.20;;;11.20;58.20;;;;;;5074047;28;20508;-71
2021/04/14 12:27:06;;;;;;;6.57;4.53;;;11.20;57.70;;;;;;5072418;28;20086;-70
2021/04/14 12:29:32;;;;;;;6.55;3.80;;;11.20;57.70;;;;;;5072947;28;20041;-70
2021/04/14 12:32:00;;;;;;;5.13;3.97;;;11.20;57.60;;;;;;5073576;28;20799;-70
2021/04/14 12:34:26;;;;;;;5.55;4.50;;;11.20;57.30;;;;;;5072573;28;20066;-70
2021/04/14 12:36:51;;;;;;;8.07;4.20;;;11.30;57.30;;;;;;5073677;28;20082;-70
2021/04/14 12:39:17;;;;;;;5.40;4.35;;;11.40;56.90;;;;;;5073555;28;20025;-71
2021/04/14 12:41:43;;;;;;;3.53;2.70;;;11.40;56.90;;;;;;5072124;28;20037;-70
2021/04/14 12:44:10;;;;;;;2.75;2.22;;;11.50;55.30;;;;;;5073760;28;20025;-70
2021/04/14 12:46:44;;;;;;;3.22;2.30;;;11.50;54.90;;;;;;5072197;28;20418;-70
2021/04/14 12:49:12;;;;;;;3.15;2.15;;;11.50;54.00;;;;;;5073372;28;20032;-70
2021/04/14 12:51:42;;;;;;;3.42;2.20;;;11.60;53.80;;;;;;5073436;28;20497;-70
2021/04/14 12:54:14;;;;;;;3.00;2.13;;;11.70;52.80;;;;;;5072438;28;20111;-70
2021/04/14 12:56:43;;;;;;;6.00;1.90;;;11.80;53.10;;;;;;5073331;28;20357;-70
2021/04/14 12:59:15;;;;;;;4.45;1.90;;;11.80;52.40;;;;;;5071925;28;20042;-69
2021/04/14 13:01:43;;;;;;;5.40;2.05;;;11.70;51.00;;;;;;5071797;28;20547;-70
2021/04/14 13:04:28;;;;;;;3.40;2.30;;;11.50;50.50;;;;;;5073037;28;20118;-70
2021/04/14 13:06:58;;;;;;;5.03;2.55;;;11.40;51.00;;;;;;5073159;28;20032;-69
2021/04/14 13:09:25;;;;;;;4.47;2.60;;;11.30;50.10;;;;;;5072873;28;20064;-70
2021/04/14 13:12:09;;;;;;;3.50;2.58;;;11.20;50.20;;;;;;5071510;28;20119;-69
2021/04/14 13:14:35;;;;;;;4.45;2.13;;;11.20;50.70;;;;;;5072867;28;20395;-70